Time;durP1;ratioP1;P1;durP2;ratioP2;P2;SDS_P1;SDS_P2;PMS_P1;PMS_P2;Temp;Humidity;BMP_temperature;BMP_pressure;BME280_temperature;BME280_humidity;BME280_pressure;Samples;Min_cycle;Max_cycle;Signal;HPM_P1;HPM_P2
2024/02/07 00:01:31;;;;;;;23.63;8.38;;;10.60;58.50;;;;;;6281396;28;20117;-74
2024/02/07 00:04:32;;;;;;;20.25;8.25;;;10.60;58.60;;;;;;6281357;28;20020;-74
2024/02/07 00:07:33;;;;;;;18.30;7.85;;;10.60;58.70;;;;;;6278292;28;20028;-73
2024/02/07 00:10:34;;;;;;;26.02;9.18;;;10.50;58.70;;;;;;6266483;28;20037;-74
2024/02/07 00:13:35;;;;;;;21.10;8.85;;;10.50;58.80;;;;;;6296452;28;20621;-74
2024/02/07 00:16:35;;;;;;;21.85;8.50;;;10.50;58.90;;;;;;6297516;28;20100;-73
2024/02/07 00:19:36;;;;;;;19.70;8.50;;;10.50;58.90;;;;;;6281522;28;20065;-71
2024/02/07 00:22:37;;;;;;;15.98;7.45;;;10.40;58.90;;;;;;6283934;28;20016;-72
2024/02/07 00:25:38;;;;;;;19.50;8.90;;;10.40;59.00;;;;;;6271640;28;20024;-72
2024/02/07 00:28:39;;;;;;;22.40;8.65;;;10.50;59.10;;;;;;6284716;28;20063;-72
2024/02/07 00:31:40;;;;;;;24.77;8.88;;;10.40;59.10;;;;;;6285772;28;20017;-73
2024/02/07 00:34:40;;;;;;;20.15;9.15;;;10.40;59.10;;;;;;6294636;28;20073;-72
2024/02/07 00:37:41;;;;;;;19.85;8.48;;;10.50;59.20;;;;;;6298343;28;20061;-72
2024/02/07 00:40:42;;;;;;;29.50;9.68;;;10.40;59.20;;;;;;6280898;28;20032;-75
2024/02/07 00:43:43;;;;;;;22.23;9.00;;;10.40;59.20;;;;;;6298347;28;20024;-73
2024/02/07 00:46:44;;;;;;;25.40;9.18;;;10.40;59.30;;;;;;6289931;28;20028;-73
2024/02/07 00:49:45;;;;;;;23.83;10.45;;;10.40;59.30;;;;;;6302446;28;20091;-73
2024/02/07 00:52:46;;;;;;;33.55;10.23;;;10.40;59.30;;;;;;6280723;28;20021;-73
2024/02/07 00:55:47;;;;;;;18.98;8.63;;;10.40;59.30;;;;;;6288411;28;20491;-71
2024/02/07 00:58:48;;;;;;;21.13;9.20;;;10.40;59.40;;;;;;6286802;28;20024;-72
2024/02/07 01:01:49;;;;;;;28.63;9.25;;;10.40;59.30;;;;;;6285637;28;20028;-73
2024/02/07 01:04:51;;;;;;;28.02;8.98;;;10.50;59.40;;;;;;6291080;28;20024;-74
2024/02/07 01:07:52;;;;;;;18.48;8.73;;;10.60;59.30;;;;;;6284150;28;20028;-72
2024/02/07 01:10:53;;;;;;;22.17;9.70;;;10.70;59.30;;;;;;6275470;28;20032;-73
2024/02/07 01:13:53;;;;;;;21.85;9.25;;;10.70;59.10;;;;;;6283180;28;20075;-74
2024/02/07 01:16:54;;;;;;;20.33;8.70;;;10.70;59.10;;;;;;6281206;28;20016;-73
2024/02/07 01:19:55;;;;;;;25.40;8.82;;;10.70;59.10;;;;;;6279626;28;20036;-72
2024/02/07 01:22:56;;;;;;;21.15;9.88;;;10.70;59.10;;;;;;6288197;28;20052;-72
2024/02/07 01:25:57;;;;;;;25.15;9.32;;;10.60;59.10;;;;;;6301241;28;20467;-73
2024/02/07 01:28:57;;;;;;;19.13;10.05;;;10.70;59.10;;;;;;6299772;28;20105;-73
2024/02/07 01:31:58;;;;;;;24.90;10.38;;;10.70;59.10;;;;;;6289773;28;20408;-74
2024/02/07 01:34:59;;;;;;;19.10;8.32;;;10.70;59.00;;;;;;6309343;28;20055;-73
2024/02/07 01:38:07;;;;;;;25.73;10.63;;;10.80;59.00;;;;;;6303617;28;20099;-74
2024/02/07 01:41:08;;;;;;;24.23;9.37;;;10.80;58.90;;;;;;6284783;28;20013;-73
2024/02/07 01:44:09;;;;;;;22.35;9.30;;;10.80;58.80;;;;;;6300326;28;20106;-74
2024/02/07 01:47:12;;;;;;;21.30;9.02;;;10.90;58.80;;;;;;6296036;28;20031;-74
2024/02/07 01:50:14;;;;;;;18.33;8.23;;;10.80;58.80;;;;;;6298422;28;20055;-74
2024/02/07 01:53:14;;;;;;;28.45;10.10;;;10.90;58.80;;;;;;6292300;28;20098;-73
2024/02/07 01:56:16;;;;;;;27.80;10.48;;;10.80;58.90;;;;;;6307719;28;20036;-72
2024/02/07 01:59:17;;;;;;;22.98;9.18;;;10.80;58.90;;;;;;6288779;28;20059;-73
2024/02/07 02:02:18;;;;;;;21.85;9.48;;;10.80;58.90;;;;;;6285525;28;20507;-73
2024/02/07 02:05:20;;;;;;;26.42;9.82;;;10.80;58.90;;;;;;6283986;28;20088;-72
2024/02/07 02:08:21;;;;;;;25.65;9.90;;;10.80;58.90;;;;;;6283761;28;20504;-73
2024/02/07 02:11:31;;;;;;;19.50;9.48;;;10.80;59.00;;;;;;6283246;28;20052;-72
2024/02/07 02:14:57;;;;;;;22.33;8.98;;;10.80;58.90;;;;;;6281908;28;20036;-73
2024/02/07 02:17:58;;;;;;;23.17;10.18;;;10.80;58.90;;;;;;6288997;28;20461;-73
2024/02/07 02:21:00;;;;;;;25.83;9.52;;;10.80;59.00;;;;;;6297708;28;20081;-73
2024/02/07 02:24:29;;;;;;;21.98;8.98;;;10.80;59.00;;;;;;6287100;28;20183;-73
2024/02/07 02:27:44;;;;;;;17.55;9.00;;;10.80;59.20;;;;;;6289308;28;20024;-73
2024/02/07 02:31:05;;;;;;;22.73;9.20;;;10.80;59.20;;;;;;6283038;28;20086;-73
2024/02/07 02:34:06;;;;;;;20.83;9.75;;;10.70;59.10;;;;;;6287094;28;20027;-73
2024/02/07 02:37:07;;;;;;;18.73;8.55;;;10.70;59.10;;;;;;6290873;28;20016;-74
2024/02/07 02:40:08;;;;;;;24.15;10.07;;;10.70;59.20;;;;;;6287712;28;20399;-73
2024/02/07 02:43:12;;;;;;;23.58;9.80;;;10.70;59.20;;;;;;6285363;28;20028;-74
2024/02/07 02:46:14;;;;;;;18.50;8.75;;;10.70;59.30;;;;;;6307451;28;20032;-73
2024/02/07 02:49:15;;;;;;;24.88;11.10;;;10.70;59.30;;;;;;6296329;28;20059;-73
2024/02/07 02:52:17;;;;;;;24.48;10.23;;;10.70;59.40;;;;;;6287838;28;20385;-72
2024/02/07 02:55:18;;;;;;;29.70;10.13;;;10.70;59.40;;;;;;6305549;28;20104;-73
2024/02/07 02:58:20;;;;;;;20.02;8.95;;;10.60;59.40;;;;;;6293244;28;20021;-74
2024/02/07 03:01:21;;;;;;;22.73;10.80;;;10.60;59.50;;;;;;6282510;28;20078;-73
2024/02/07 03:04:22;;;;;;;22.35;9.77;;;10.60;59.60;;;;;;6296845;28;20088;-74
2024/02/07 03:10:49;;;;;;;36.70;10.65;;;10.60;59.70;;;;;;6179449;28;20057;-73
2024/02/07 03:13:50;;;;;;;27.08;9.85;;;10.60;60.40;;;;;;6192721;28;20022;-73
2024/02/07 03:16:51;;;;;;;21.60;9.60;;;10.60;59.80;;;;;;6217434;28;20033;-73
2024/02/07 03:20:22;;;;;;;26.38;10.25;;;10.50;59.80;;;;;;6212676;28;20030;-73
2024/02/07 03:23:23;;;;;;;19.27;8.32;;;10.60;59.90;;;;;;6203411;28;20561;-73
2024/02/07 03:26:24;;;;;;;16.23;8.13;;;10.50;59.90;;;;;;6228625;28;20026;-73
2024/02/07 03:29:25;;;;;;;17.77;8.45;;;10.60;59.90;;;;;;6222654;28;20636;-73
2024/02/07 03:32:26;;;;;;;19.30;8.65;;;10.60;60.60;;;;;;6203876;28;20464;-74
2024/02/07 03:35:27;;;;;;;22.02;8.98;;;10.60;59.80;;;;;;6207359;28;20163;-73
2024/02/07 03:38:28;;;;;;;18.23;8.73;;;10.70;59.80;;;;;;6203605;28;20102;-73
2024/02/07 03:41:29;;;;;;;19.27;9.18;;;10.70;59.80;;;;;;6224935;28;20103;-74
2024/02/07 03:44:30;;;;;;;22.58;8.82;;;10.70;59.70;;;;;;6224148;28;20026;-73
2024/02/07 03:47:31;;;;;;;18.13;8.07;;;10.80;59.60;;;;;;6260595;28;20488;-74
2024/02/07 03:50:32;;;;;;;15.80;8.77;;;10.80;59.40;;;;;;6282762;28;20051;-73
2024/02/07 03:53:32;;;;;;;20.88;9.05;;;10.80;59.40;;;;;;6281125;28;20035;-74
2024/02/07 03:56:34;;;;;;;21.48;9.68;;;10.70;59.40;;;;;;6305926;28;20081;-73
2024/02/07 03:59:35;;;;;;;18.52;8.07;;;10.70;59.50;;;;;;6303432;28;20567;-73
2024/02/07 04:02:39;;;;;;;24.65;9.88;;;10.70;59.60;;;;;;6306224;28;20064;-73
2024/02/07 04:05:40;;;;;;;17.90;8.50;;;10.70;59.70;;;;;;6286339;28;20445;-73
2024/02/07 04:08:42;;;;;;;25.73;9.23;;;10.60;59.70;;;;;;6279494;28;20127;-72
2024/02/07 05:17:47;;;;;;;19.77;8.82;;;10.90;59.40;;;;;;6283535;28;20071;-74
2024/02/07 05:20:48;;;;;;;14.43;7.93;;;11.00;59.30;;;;;;6290060;28;20035;-73
2024/02/07 05:23:49;;;;;;;23.98;9.15;;;11.00;59.20;;;;;;6283489;28;20024;-74
2024/02/07 05:26:50;;;;;;;21.27;8.70;;;11.00;59.10;;;;;;6291303;28;20020;-73
2024/02/07 05:29:51;;;;;;;19.73;8.27;;;11.00;59.10;;;;;;6300530;28;20062;-73
2024/02/07 05:32:52;;;;;;;25.70;10.45;;;11.00;59.10;;;;;;6293082;28;20426;-74
2024/02/07 05:35:53;;;;;;;20.67;9.25;;;11.00;59.10;;;;;;6288954;28;20062;-73
2024/02/07 05:38:55;;;;;;;21.55;9.48;;;10.90;59.10;;;;;;6299099;28;20109;-74
2024/02/07 05:41:56;;;;;;;20.50;8.90;;;10.90;59.10;;;;;;6283280;28;20024;-73
2024/02/07 05:44:57;;;;;;;25.60;9.43;;;10.90;59.20;;;;;;6284877;28;20028;-73
2024/02/07 05:47:58;;;;;;;27.10;9.90;;;10.90;59.20;;;;;;6307651;28;20429;-74
2024/02/07 05:50:59;;;;;;;24.38;9.38;;;10.90;59.20;;;;;;6285587;28;20100;-74
2024/02/07 05:54:00;;;;;;;20.70;9.18;;;10.90;59.10;;;;;;6284657;28;20104;-74
2024/02/07 05:57:01;;;;;;;20.88;9.80;;;10.90;59.10;;;;;;6303940;28;20020;-74
2024/02/07 06:00:08;;;;;;;26.92;9.13;;;10.80;59.00;;;;;;6296026;28;20392;-72
2024/02/07 06:03:12;;;;;;;25.80;8.77;;;10.80;59.20;;;;;;6288076;28;20190;-73
2024/02/07 06:06:13;;;;;;;22.65;8.98;;;10.70;59.20;;;;;;6284065;28;20028;-73
2024/02/07 06:09:14;;;;;;;18.75;8.73;;;10.70;59.30;;;;;;6287816;28;20152;-74
2024/02/07 06:12:15;;;;;;;22.35;9.35;;;10.70;59.40;;;;;;6280515;28;20063;-73
2024/02/07 06:15:16;;;;;;;18.30;8.45;;;10.70;59.40;;;;;;6287183;28;20019;-74
2024/02/07 06:18:17;;;;;;;23.58;9.73;;;10.70;59.40;;;;;;6293634;28;20016;-73
2024/02/07 06:21:19;;;;;;;23.98;9.55;;;10.70;59.60;;;;;;6293497;28;20028;-74
2024/02/07 06:24:20;;;;;;;19.15;8.57;;;10.70;59.60;;;;;;6278098;28;20036;-74
2024/02/07 06:27:21;;;;;;;23.13;9.75;;;10.70;59.60;;;;;;6298741;28;20039;-72
2024/02/07 06:30:23;;;;;;;23.63;9.50;;;10.70;59.60;;;;;;6308556;28;20047;-71
2024/02/07 06:33:24;;;;;;;15.50;8.05;;;10.70;59.60;;;;;;6308244;28;20035;-74
2024/02/07 06:36:24;;;;;;;25.05;9.45;;;10.70;59.60;;;;;;6309106;28;20107;-75
2024/02/07 06:39:25;;;;;;;25.58;10.05;;;10.70;59.70;;;;;;6303150;28;20024;-74
2024/02/07 06:42:26;;;;;;;21.98;9.93;;;10.70;59.70;;;;;;6290352;28;20036;-73
2024/02/07 06:45:27;;;;;;;23.02;9.45;;;10.70;59.70;;;;;;6282818;28;20097;-72
2024/02/07 06:48:28;;;;;;;23.08;8.88;;;10.70;59.70;;;;;;6287343;28;20508;-73
2024/02/07 06:51:28;;;;;;;33.03;8.95;;;10.70;59.70;;;;;;6292153;28;20050;-74
2024/02/07 06:54:29;;;;;;;21.33;9.18;;;10.70;59.60;;;;;;6308012;28;20439;-74
2024/02/07 06:57:30;;;;;;;20.98;8.70;;;10.70;59.40;;;;;;6287846;28;20444;-71
2024/02/07 07:00:31;;;;;;;22.98;8.15;;;10.70;59.40;;;;;;6282693;28;20497;-73
2024/02/07 07:03:32;;;;;;;24.90;8.98;;;10.70;59.30;;;;;;6305270;28;20101;-72
2024/02/07 07:06:33;;;;;;;19.70;7.60;;;10.70;59.20;;;;;;6303943;28;20336;-73
2024/02/07 07:09:33;;;;;;;22.15;8.77;;;10.80;59.30;;;;;;6297652;28;20115;-73
2024/02/07 07:12:34;;;;;;;20.05;9.25;;;10.70;59.30;;;;;;6289688;28;20111;-72
2024/02/07 07:15:35;;;;;;;24.95;9.40;;;10.70;59.40;;;;;;6280642;28;20103;-73
2024/02/07 07:18:36;;;;;;;19.23;9.13;;;10.70;59.40;;;;;;6293468;28;20032;-73
2024/02/07 07:21:37;;;;;;;31.65;8.35;;;10.70;59.40;;;;;;6293042;28;20450;-73
2024/02/07 07:24:37;;;;;;;21.23;8.30;;;10.80;59.50;;;;;;6306382;28;20119;-73
2024/02/07 07:27:38;;;;;;;24.50;8.75;;;10.80;59.50;;;;;;6280178;28;20403;-74
2024/02/07 07:30:39;;;;;;;16.27;7.47;;;10.90;59.40;;;;;;6295333;28;20029;-74
2024/02/07 07:33:40;;;;;;;25.00;9.13;;;10.90;59.40;;;;;;6302692;28;20103;-74
2024/02/07 07:36:42;;;;;;;22.90;8.90;;;10.90;59.40;;;;;;6301653;28;20457;-72
2024/02/07 07:39:43;;;;;;;26.60;9.95;;;10.90;59.30;;;;;;6282861;28;20551;-74
2024/02/07 07:42:44;;;;;;;21.90;8.70;;;10.90;59.30;;;;;;6306205;28;20077;-72
2024/02/07 07:45:44;;;;;;;20.63;8.40;;;10.90;59.50;;;;;;6287154;28;20078;-72
2024/02/07 07:48:45;;;;;;;40.88;10.48;;;10.80;59.60;;;;;;6304003;28;20127;-74
2024/02/07 07:51:46;;;;;;;25.98;8.52;;;10.80;59.70;;;;;;6299846;28;20327;-73
2024/02/07 07:54:47;;;;;;;28.92;9.57;;;10.70;59.70;;;;;;6280731;28;20031;-74
2024/02/07 07:57:48;;;;;;;20.98;8.38;;;10.70;59.80;;;;;;6280013;28;20021;-73
2024/02/07 08:00:49;;;;;;;24.02;7.00;;;10.80;59.90;;;;;;6280697;28;20100;-75
2024/02/07 08:03:51;;;;;;;38.00;9.30;;;10.80;59.70;;;;;;6300598;28;20032;-73
2024/02/07 08:06:52;;;;;;;20.92;8.40;;;10.80;59.60;;;;;;6304486;28;20166;-74
2024/02/07 08:09:53;;;;;;;18.95;7.38;;;10.80;59.50;;;;;;6277712;28;20135;-72
2024/02/07 08:12:53;;;;;;;26.40;8.45;;;10.80;59.30;;;;;;6306168;28;20579;-73
2024/02/07 08:15:54;;;;;;;14.90;6.93;;;10.80;59.30;;;;;;6306547;28;20032;-76
2024/02/07 08:18:55;;;;;;;25.15;7.45;;;10.90;59.20;;;;;;6288329;28;20035;-73
2024/02/07 08:21:56;;;;;;;19.05;7.20;;;10.90;59.10;;;;;;6282639;28;20088;-74
2024/02/07 08:24:57;;;;;;;18.67;8.05;;;10.90;59.10;;;;;;6306037;28;20123;-71
2024/02/07 08:27:58;;;;;;;19.65;7.57;;;10.90;59.00;;;;;;6294696;28;20024;-73
2024/02/07 08:30:59;;;;;;;14.30;7.55;;;11.00;58.90;;;;;;6287010;28;20096;-71
2024/02/07 08:33:59;;;;;;;18.88;8.15;;;11.00;58.90;;;;;;6286483;28;20039;-74
2024/02/07 08:37:00;;;;;;;19.45;7.60;;;11.10;58.70;;;;;;6281276;28;20032;-73
2024/02/07 08:40:01;;;;;;;17.13;7.80;;;11.20;58.70;;;;;;6279179;28;20425;-74
2024/02/07 08:43:06;;;;;;;18.80;7.05;;;11.30;58.50;;;;;;6294490;28;20032;-74
2024/02/07 08:46:07;;;;;;;21.30;7.40;;;11.30;58.30;;;;;;6280041;28;20040;-73
2024/02/07 08:49:08;;;;;;;17.10;6.88;;;11.30;58.00;;;;;;6293341;28;20068;-73
2024/02/07 08:52:08;;;;;;;20.45;7.93;;;11.40;57.90;;;;;;6294238;28;20024;-72
2024/02/07 08:55:09;;;;;;;17.52;7.03;;;11.40;57.90;;;;;;6283127;28;20060;-72
2024/02/07 08:58:10;;;;;;;22.00;9.20;;;11.50;57.70;;;;;;6279783;28;20095;-73
2024/02/07 09:01:13;;;;;;;19.33;7.45;;;11.60;57.50;;;;;;6298993;28;20028;-73
2024/02/07 09:04:14;;;;;;;20.45;7.68;;;11.70;57.20;;;;;;6300770;28;20050;-70
2024/02/07 09:07:15;;;;;;;16.27;7.45;;;11.80;57.00;;;;;;6304877;28;20048;-73
2024/02/07 09:10:15;;;;;;;16.63;7.35;;;11.80;56.80;;;;;;6273745;28;20095;-73
2024/02/07 09:13:16;;;;;;;17.17;7.53;;;12.00;56.70;;;;;;6303849;28;20507;-72
2024/02/07 09:16:17;;;;;;;19.08;7.85;;;12.10;56.40;;;;;;6305865;28;20088;-74
2024/02/07 09:19:18;;;;;;;25.35;8.93;;;12.20;56.20;;;;;;6289758;28;20422;-74
2024/02/07 09:22:19;;;;;;;28.52;9.45;;;12.30;55.80;;;;;;6288376;28;20046;-74
2024/02/07 09:25:20;;;;;;;18.40;7.85;;;12.40;55.60;;;;;;6300324;28;20028;-74
2024/02/07 09:28:21;;;;;;;19.33;7.33;;;12.50;54.80;;;;;;6287491;28;20108;-74
2024/02/07 09:31:22;;;;;;;19.02;7.63;;;12.50;54.60;;;;;;6283237;28;20143;-72
2024/02/07 09:34:22;;;;;;;21.33;7.40;;;12.60;54.80;;;;;;6288708;28;20033;-74
2024/02/07 09:37:23;;;;;;;21.33;8.73;;;12.70;54.70;;;;;;6280074;28;20084;-73
2024/02/07 09:40:24;;;;;;;18.77;8.13;;;12.80;54.60;;;;;;6281804;28;20442;-75
2024/02/07 09:43:25;;;;;;;9.27;4.28;;;13.00;54.20;;;;;;6283771;28;20035;-76
2024/02/07 09:46:28;;;;;;;7.15;3.70;;;13.00;53.70;;;;;;6280426;28;20075;-74
2024/02/07 09:49:29;;;;;;;11.52;3.85;;;13.00;52.30;;;;;;6300519;28;20463;-74
2024/02/07 09:52:32;;;;;;;9.20;3.97;;;13.00;51.30;;;;;;6295128;28;20104;-74
2024/02/07 09:55:34;;;;;;;7.28;3.30;;;13.10;51.10;;;;;;6286039;28;20063;-75
2024/02/07 09:58:35;;;;;;;12.77;3.58;;;13.10;51.80;;;;;;6287581;28;20127;-75
2024/02/07 10:01:37;;;;;;;8.10;3.83;;;13.10;50.70;;;;;;6284161;28;20094;-75
2024/02/07 10:04:41;;;;;;;8.18;3.45;;;13.10;50.60;;;;;;6294514;28;20028;-75
2024/02/07 10:07:43;;;;;;;11.65;3.60;;;13.20;50.70;;;;;;6284036;28;20453;-74
2024/02/07 10:10:48;;;;;;;10.43;3.53;;;13.20;50.50;;;;;;6294422;28;20514;-74
2024/02/07 10:13:49;;;;;;;8.73;4.00;;;13.20;50.60;;;;;;6286695;28;20060;-73
2024/02/07 10:16:50;;;;;;;8.95;3.65;;;13.30;50.30;;;;;;6277637;28;20074;-75
2024/02/07 10:19:51;;;;;;;9.05;3.13;;;13.20;49.90;;;;;;6279396;28;20084;-74
2024/02/07 10:22:52;;;;;;;9.98;3.67;;;13.30;49.70;;;;;;6306090;28;20038;-73
2024/02/07 10:25:54;;;;;;;12.77;4.68;;;13.30;49.30;;;;;;6304178;28;20039;-74
2024/02/07 10:29:03;;;;;;;6.78;3.47;;;13.40;49.60;;;;;;6294098;28;20024;-74
2024/02/07 10:32:04;;;;;;;8.07;3.63;;;13.60;49.50;;;;;;6306936;28;20024;-72
2024/02/07 10:35:10;;;;;;;9.15;3.65;;;13.90;49.00;;;;;;6304097;28;20034;-73
2024/02/07 10:38:11;;;;;;;13.70;4.60;;;14.20;48.70;;;;;;6293892;28;20434;-73
2024/02/07 10:41:12;;;;;;;9.88;4.35;;;14.50;48.00;;;;;;6283287;28;20035;-75
2024/02/07 10:44:12;;;;;;;11.27;4.13;;;14.70;47.80;;;;;;6287274;28;20334;-74
2024/02/07 10:47:13;;;;;;;13.32;5.03;;;14.80;47.40;;;;;;6259543;28;20112;-74
2024/02/07 10:50:16;;;;;;;15.20;5.10;;;15.10;47.40;;;;;;6275402;28;20024;-75
2024/02/07 10:53:17;;;;;;;13.40;4.63;;;15.30;47.00;;;;;;6292311;28;20086;-75
2024/02/07 10:56:19;;;;;;;17.35;4.57;;;15.30;46.60;;;;;;6308925;28;20019;-76
2024/02/07 10:59:21;;;;;;;9.68;4.00;;;15.40;46.20;;;;;;6306171;28;20095;-74
2024/02/07 11:02:23;;;;;;;8.40;4.07;;;15.30;45.60;;;;;;6293363;28;20024;-73
2024/02/07 11:05:25;;;;;;;9.02;3.47;;;15.20;45.80;;;;;;6305186;28;20043;-74
2024/02/07 11:08:27;;;;;;;8.63;3.45;;;15.30;45.40;;;;;;6305636;28;20103;-75
2024/02/07 11:11:29;;;;;;;11.93;3.65;;;15.50;45.00;;;;;;6294128;28;20090;-73
2024/02/07 11:14:30;;;;;;;21.23;7.00;;;15.70;44.60;;;;;;6293860;28;20031;-74
2024/02/07 11:17:30;;;;;;;7.60;3.90;;;16.10;44.50;;;;;;6281554;28;20013;-74
2024/02/07 11:20:32;;;;;;;11.80;3.80;;;16.70;44.10;;;;;;6299479;28;20020;-74
2024/02/07 11:23:36;;;;;;;9.18;3.60;;;17.00;41.70;;;;;;6291564;28;20148;-74
2024/02/07 11:26:37;;;;;;;7.38;3.53;;;17.20;40.80;;;;;;6265553;28;20202;-74
2024/02/07 11:34:01;;;;;;;9.73;3.83;;;17.80;40.20;;;;;;6258740;28;20085;-74
2024/02/07 11:37:05;;;;;;;12.10;3.95;;;18.50;39.40;;;;;;6304250;28;20124;-74
2024/02/07 11:40:13;;;;;;;8.80;3.70;;;19.00;38.30;;;;;;6292392;28;20024;-73
2024/02/07 11:43:23;;;;;;;8.00;3.70;;;19.20;36.30;;;;;;6288282;28;20559;-73
2024/02/07 11:46:24;;;;;;;11.65;4.07;;;19.30;36.20;;;;;;6292077;28;20059;-74
2024/02/07 11:49:28;;;;;;;11.02;3.40;;;19.60;36.20;;;;;;6283620;28;20020;-74
2024/02/07 11:52:31;;;;;;;5.55;2.95;;;20.10;35.20;;;;;;6294580;28;20020;-73
2024/02/07 11:55:40;;;;;;;11.00;3.33;;;20.70;34.80;;;;;;6295234;28;20016;-75
2024/02/07 11:58:41;;;;;;;8.13;3.72;;;21.20;33.80;;;;;;6281598;28;20021;-74
2024/02/07 12:01:43;;;;;;;5.57;3.25;;;21.70;33.60;;;;;;6295328;28;20036;-74
2024/02/07 12:04:45;;;;;;;9.75;4.20;;;22.20;31.80;;;;;;6296722;28;20016;-74
2024/02/07 12:07:50;;;;;;;9.32;4.10;;;22.50;31.20;;;;;;6305299;28;20023;-74
2024/02/07 12:10:51;;;;;;;8.07;3.63;;;22.70;30.80;;;;;;6270971;28;20032;-74
2024/02/07 12:13:51;;;;;;;6.70;3.70;;;23.00;30.80;;;;;;6291698;28;20028;-73
2024/02/07 12:16:53;;;;;;;10.60;3.83;;;23.30;30.40;;;;;;6299340;28;20055;-74
2024/02/07 12:19:58;;;;;;;9.93;4.30;;;23.60;30.20;;;;;;6303907;28;20027;-74
2024/02/07 12:23:00;;;;;;;10.73;3.83;;;23.20;29.70;;;;;;6279301;28;20024;-75
2024/02/07 12:26:03;;;;;;;7.53;3.55;;;22.30;31.00;;;;;;6283446;28;20827;-74
2024/02/07 12:29:06;;;;;;;8.88;3.22;;;21.60;32.50;;;;;;6299770;28;20063;-76
2024/02/07 12:32:07;;;;;;;5.57;2.92;;;21.00;33.70;;;;;;6285799;28;20023;-74
2024/02/07 12:35:09;;;;;;;5.93;2.83;;;20.50;33.40;;;;;;6280818;28;20012;-74
2024/02/07 12:38:10;;;;;;;5.63;2.58;;;19.90;34.30;;;;;;6291919;28;20143;-75
2024/02/07 12:41:10;;;;;;;4.90;2.60;;;19.40;34.70;;;;;;6274947;28;20032;-75
2024/02/07 12:44:14;;;;;;;10.77;3.10;;;18.90;35.10;;;;;;6289103;28;20020;-74
2024/02/07 12:47:17;;;;;;;12.02;3.45;;;18.40;36.60;;;;;;6285013;28;20119;-78
2024/02/07 12:50:18;;;;;;;10.27;3.35;;;18.00;36.80;;;;;;6287098;28;20109;-73
2024/02/07 12:53:22;;;;;;;11.45;3.13;;;17.90;37.40;;;;;;6289241;28;20071;-74
2024/02/07 12:56:23;;;;;;;16.63;5.75;;;17.70;37.80;;;;;;6261912;28;20130;-74
2024/02/07 12:59:34;;;;;;;9.48;4.35;;;17.60;38.20;;;;;;6280999;28;20107;-74
2024/02/07 13:02:35;;;;;;;67.32;7.20;;;17.40;38.40;;;;;;6291777;28;20028;-74
2024/02/07 13:05:38;;;;;;;7.65;3.75;;;17.30;38.40;;;;;;6298034;28;20111;-73
2024/02/07 13:08:39;;;;;;;8.00;3.20;;;17.00;38.70;;;;;;6280597;28;20117;-74
2024/02/07 13:11:39;;;;;;;11.38;3.78;;;16.90;39.10;;;;;;6301284;28;20024;-75
2024/02/07 13:14:40;;;;;;;10.82;3.65;;;16.70;39.10;;;;;;6292340;28;20028;-74
2024/02/07 13:17:41;;;;;;;10.05;3.60;;;16.60;39.70;;;;;;6283850;28;20056;-74
2024/02/07 13:20:42;;;;;;;13.18;3.00;;;16.30;39.90;;;;;;6283003;28;20024;-75
2024/02/07 13:23:43;;;;;;;6.47;2.95;;;16.30;40.10;;;;;;6309917;28;20398;-74
2024/02/07 13:26:46;;;;;;;10.27;3.50;;;16.30;40.30;;;;;;6295650;28;20416;-75
2024/02/07 13:29:47;;;;;;;8.70;3.55;;;16.20;40.60;;;;;;6282821;28;20051;-75
2024/02/07 13:32:48;;;;;;;8.90;3.00;;;16.20;40.80;;;;;;6286430;28;20111;-73
2024/02/07 13:35:49;;;;;;;8.25;2.58;;;16.20;40.90;;;;;;6297095;28;20391;-74
2024/02/07 13:38:51;;;;;;;5.80;2.22;;;16.10;41.40;;;;;;6285359;28;20057;-75
2024/02/07 13:41:51;;;;;;;13.80;3.25;;;16.10;40.80;;;;;;6291367;28;20696;-74
2024/02/07 13:44:52;;;;;;;5.95;3.22;;;16.00;41.00;;;;;;6291518;28;20028;-73
2024/02/07 13:47:53;;;;;;;10.75;3.40;;;16.00;41.30;;;;;;6289682;28;20043;-74
2024/02/07 13:50:54;;;;;;;12.63;3.35;;;16.00;41.40;;;;;;6283907;28;20076;-74
2024/02/07 13:53:55;;;;;;;12.32;3.40;;;16.00;41.40;;;;;;6284167;28;20084;-74
2024/02/07 13:56:56;;;;;;;10.80;3.45;;;16.00;41.50;;;;;;6292936;28;20106;-73
2024/02/07 13:59:56;;;;;;;9.20;2.92;;;16.00;41.50;;;;;;6309461;28;20084;-73
2024/02/07 14:02:57;;;;;;;6.63;3.25;;;16.00;41.60;;;;;;6300202;28;20015;-74
2024/02/07 14:05:59;;;;;;;10.02;3.67;;;16.00;41.60;;;;;;6293271;28;20107;-73
2024/02/07 14:09:00;;;;;;;6.35;2.65;;;16.00;41.70;;;;;;6301658;28;20037;-74
2024/02/07 14:12:00;;;;;;;8.73;2.67;;;16.10;41.80;;;;;;6283910;28;20032;-75
2024/02/07 14:15:01;;;;;;;9.02;3.00;;;16.10;41.50;;;;;;6290510;28;20024;-75
2024/02/07 14:18:02;;;;;;;6.30;2.60;;;16.10;41.50;;;;;;6296475;28;21495;-74
2024/02/07 14:21:04;;;;;;;9.57;2.90;;;16.10;41.60;;;;;;6262129;28;20068;-74
2024/02/07 14:24:05;;;;;;;13.68;3.63;;;16.10;41.50;;;;;;6269117;28;20042;-75
2024/02/07 14:27:06;;;;;;;5.13;2.22;;;16.00;41.50;;;;;;6299977;28;20016;-74
2024/02/07 14:30:08;;;;;;;9.07;2.72;;;16.10;41.60;;;;;;6292379;28;20029;-74
2024/02/07 14:33:11;;;;;;;6.93;3.10;;;16.10;41.20;;;;;;6280089;28;20231;-75
2024/02/07 14:36:12;;;;;;;5.05;2.17;;;16.10;41.00;;;;;;6293859;28;20017;-73
2024/02/07 14:39:12;;;;;;;4.63;1.98;;;16.10;41.00;;;;;;6289599;28;20660;-75
2024/02/07 14:42:13;;;;;;;5.50;2.45;;;16.10;40.80;;;;;;6300889;28;20119;-72
2024/02/07 14:45:14;;;;;;;10.57;3.42;;;16.10;40.80;;;;;;6283580;28;20400;-74
2024/02/07 14:48:15;;;;;;;6.18;2.95;;;16.20;41.00;;;;;;6300302;28;20020;-74
2024/02/07 14:51:16;;;;;;;12.98;2.92;;;16.20;40.90;;;;;;6308843;28;20112;-74
2024/02/07 14:54:17;;;;;;;4.60;2.05;;;16.40;40.90;;;;;;6286853;28;20087;-74
2024/02/07 14:57:18;;;;;;;4.78;1.85;;;16.40;40.90;;;;;;6301760;28;20064;-74
2024/02/07 15:00:19;;;;;;;8.05;2.42;;;16.50;40.70;;;;;;6297230;28;20025;-73
2024/02/07 15:03:20;;;;;;;6.80;2.17;;;16.60;40.60;;;;;;6277296;28;20120;-74
2024/02/07 15:06:21;;;;;;;4.85;2.10;;;16.60;40.70;;;;;;6295342;28;20075;-73
2024/02/07 15:13:45;;;;;;;4.63;2.42;;;16.60;40.40;;;;;;6287386;28;20277;-74
2024/02/07 15:16:45;;;;;;;2.80;1.88;;;16.60;40.50;;;;;;6296332;28;20458;-74
2024/02/07 15:19:46;;;;;;;4.72;1.92;;;16.60;40.60;;;;;;6282552;28;20032;-73
2024/02/07 15:23:28;;;;;;;4.43;2.13;;;16.60;40.60;;;;;;6282979;28;20024;-74
2024/02/07 15:26:29;;;;;;;4.60;2.13;;;16.60;40.60;;;;;;6292972;28;20506;-74
2024/02/07 15:29:30;;;;;;;3.15;2.08;;;16.50;40.50;;;;;;6307380;28;20105;-74
2024/02/07 15:32:32;;;;;;;4.30;2.03;;;16.50;40.70;;;;;;6302527;28;20111;-73
2024/02/07 15:35:33;;;;;;;10.70;2.10;;;16.50;40.70;;;;;;6284959;28;20065;-73
2024/02/07 15:38:34;;;;;;;3.33;1.48;;;16.40;40.80;;;;;;6293051;28;20078;-73
2024/02/07 15:41:35;;;;;;;3.22;1.50;;;16.40;40.90;;;;;;6280670;28;20449;-71
2024/02/07 15:44:38;;;;;;;4.75;2.35;;;16.40;41.00;;;;;;6281493;28;20047;-74
2024/02/07 15:47:39;;;;;;;5.55;2.22;;;16.40;40.70;;;;;;6293948;28;20039;-73
2024/02/07 15:50:39;;;;;;;7.57;2.53;;;16.40;40.60;;;;;;6282268;28;20100;-72
2024/02/07 15:53:40;;;;;;;6.57;1.83;;;16.50;40.80;;;;;;6293877;28;20028;-74
2024/02/07 15:56:44;;;;;;;8.30;1.98;;;16.50;40.90;;;;;;6295650;28;20555;-75
2024/02/07 15:59:45;;;;;;;3.40;1.88;;;16.40;40.90;;;;;;6285108;28;20051;-73
2024/02/07 16:02:45;;;;;;;4.32;2.15;;;16.50;41.00;;;;;;6281882;28;20544;-74
2024/02/07 16:06:02;;;;;;;6.30;2.38;;;16.40;40.80;;;;;;6289561;28;20016;-75
2024/02/07 16:09:02;;;;;;;6.55;1.98;;;16.40;41.00;;;;;;6286249;28;20460;-73
2024/02/07 16:12:04;;;;;;;6.80;2.35;;;16.40;41.00;;;;;;6282430;28;20020;-74
2024/02/07 16:15:08;;;;;;;7.03;2.75;;;16.30;41.00;;;;;;6295953;28;20023;-71
2024/02/07 16:18:09;;;;;;;10.90;3.20;;;16.20;41.20;;;;;;6296772;28;20039;-74
2024/02/07 16:21:09;;;;;;;14.73;3.33;;;16.20;41.40;;;;;;6306212;28;20024;-73
2024/02/07 16:24:10;;;;;;;9.55;3.08;;;16.20;41.50;;;;;;6291871;28;20042;-75
2024/02/07 16:27:11;;;;;;;4.65;2.42;;;16.10;41.70;;;;;;6261731;28;20016;-74
2024/02/07 16:30:12;;;;;;;10.43;3.53;;;16.10;41.80;;;;;;6296050;28;20436;-74
2024/02/07 16:33:13;;;;;;;6.90;2.90;;;16.00;41.90;;;;;;6285220;28;20043;-74
2024/02/07 16:36:14;;;;;;;7.55;3.30;;;16.00;42.00;;;;;;6302938;28;20056;-74
2024/02/07 16:39:15;;;;;;;8.25;3.05;;;16.00;42.10;;;;;;6256094;28;20138;-74
2024/02/07 16:42:16;;;;;;;16.65;3.45;;;16.00;42.20;;;;;;6254333;28;20077;-73
2024/02/07 16:45:17;;;;;;;10.25;3.10;;;16.00;42.20;;;;;;6298358;28;20421;-74
2024/02/07 16:48:18;;;;;;;5.90;2.63;;;16.00;42.30;;;;;;6299380;28;20056;-74
2024/02/07 16:51:19;;;;;;;10.05;3.75;;;16.00;42.30;;;;;;6279991;28;20054;-73
2024/02/07 16:54:20;;;;;;;16.23;2.58;;;16.00;42.40;;;;;;6281128;28;20048;-74